createdAt,value
2022-08-11T00:00:09.286Z,40.34
2022-08-11T00:03:00.280Z,40.56
2022-08-11T00:05:31.138Z,40.56
2022-08-11T00:08:01.982Z,40.47
2022-08-11T00:10:32.931Z,40.47
2022-08-11T00:13:07.785Z,40.59
2022-08-11T00:15:41.749Z,40.80
2022-08-11T00:18:15.495Z,40.72
2022-08-11T00:20:46.417Z,40.77
2022-08-11T00:23:21.098Z,40.81
2022-08-11T00:25:55.351Z,41.08
2022-08-11T00:28:26.979Z,41.11
2022-08-11T00:31:01.850Z,41.26
2022-08-11T00:33:44.184Z,41.44
2022-08-11T00:36:23.434Z,41.48
2022-08-11T00:39:05.476Z,41.39
2022-08-11T00:41:40.840Z,41.59
2022-08-11T00:44:24.963Z,41.80
2022-08-11T00:46:59.396Z,41.95
2022-08-11T00:49:41.731Z,42.04
2022-08-11T00:52:15.124Z,42.30
2022-08-11T00:55:11.156Z,42.48
2022-08-11T00:58:04.824Z,42.58
2022-08-11T01:00:44.241Z,42.78
2022-08-11T01:03:23.413Z,42.91
2022-08-11T01:05:59.801Z,43.02
2022-08-11T01:08:46.721Z,43.02
2022-08-11T01:11:26.917Z,43.13
2022-08-11T01:14:08.847Z,43.27
2022-08-11T01:16:47.492Z,43.42
2022-08-11T01:19:34.601Z,43.54
2022-08-11T01:22:47.556Z,43.74
2022-08-11T01:25:56.879Z,43.94
2022-08-11T01:28:41.827Z,43.98
2022-08-11T01:31:23.730Z,44.12
2022-08-11T01:34:16.838Z,44.27
2022-08-11T01:37:03.855Z,44.41
2022-08-11T01:39:53.891Z,44.56
2022-08-11T01:42:59.561Z,44.52
2022-08-11T01:45:37.930Z,44.63
2022-08-11T01:48:15.819Z,44.60
2022-08-11T01:50:54.963Z,44.71
2022-08-11T01:53:31.021Z,44.86
2022-08-11T01:56:06.642Z,44.86
2022-08-11T01:58:44.473Z,44.97
2022-08-11T02:01:36.919Z,44.94
2022-08-11T02:04:13.052Z,45.03
2022-08-11T02:06:56.111Z,45.06
2022-08-11T02:09:35.652Z,45.10
2022-08-11T02:12:11.894Z,45.15
2022-08-11T02:15:04.645Z,45.33
2022-08-11T02:17:52.672Z,45.35
2022-08-11T02:20:44.960Z,45.41
2022-08-11T02:24:06.219Z,45.46
2022-08-11T02:26:37.105Z,45.50
2022-08-11T02:29:20.235Z,45.50
2022-08-11T02:32:29.729Z,45.64
2022-08-11T02:35:14.137Z,45.71
2022-08-11T02:37:59.282Z,45.70
2022-08-11T02:40:32.756Z,45.71
2022-08-11T02:43:11.488Z,45.63
2022-08-11T02:45:54.934Z,45.77
2022-08-11T02:48:50.968Z,45.90
2022-08-11T02:51:27.574Z,45.96
2022-08-11T02:54:03.561Z,46.07
2022-08-11T02:56:40.901Z,46.18
2022-08-11T02:59:31.795Z,46.26
2022-08-11T03:02:06.359Z,46.30
2022-08-11T03:04:45.981Z,46.28
2022-08-11T03:07:28.144Z,46.44
2022-08-11T03:10:04.269Z,46.41
2022-08-11T03:13:00.276Z,46.62
2022-08-11T03:16:03.814Z,46.77
2022-08-11T03:18:36.784Z,46.78
2022-08-11T03:21:11.496Z,46.91
2022-08-11T03:23:49.043Z,46.89
2022-08-11T03:26:25.835Z,47.01
2022-08-11T03:29:09.144Z,46.98
2022-08-11T03:31:44.678Z,47.16
2022-08-11T03:34:18.775Z,47.29
2022-08-11T03:37:17.117Z,47.27
2022-08-11T03:39:56.680Z,47.39
2022-08-11T03:42:31.661Z,47.41
2022-08-11T03:45:12.133Z,47.30
2022-08-11T03:47:59.239Z,47.43
2022-08-11T03:50:43.619Z,47.40
2022-08-11T03:53:43.005Z,47.53
2022-08-11T03:56:28.546Z,47.65
2022-08-11T03:59:17.398Z,47.65
2022-08-11T04:01:56.928Z,47.88
2022-08-11T04:04:45.157Z,47.96
2022-08-11T04:07:35.853Z,48.01
2022-08-11T04:10:16.128Z,48.27
2022-08-11T04:13:01.177Z,48.23
2022-08-11T04:15:56.389Z,48.42
2022-08-11T04:18:44.702Z,48.55
2022-08-11T04:21:35.394Z,48.65
2022-08-11T04:24:38.463Z,48.72
2022-08-11T04:27:36.940Z,48.76
2022-08-11T04:30:14.050Z,48.58
2022-08-11T04:33:01.228Z,48.71
2022-08-11T04:35:37.718Z,48.63
2022-08-11T04:38:28.130Z,48.60
2022-08-11T04:41:18.328Z,48.65
2022-08-11T04:44:18.996Z,48.57
2022-08-11T04:47:00.441Z,48.59
2022-08-11T04:49:53.345Z,48.60
2022-08-11T04:53:01.768Z,48.45
2022-08-11T04:55:55.076Z,48.41
2022-08-11T04:58:44.251Z,48.39
2022-08-11T05:01:43.358Z,48.29
2022-08-11T05:04:45.428Z,48.44
2022-08-11T05:07:27.806Z,48.38
2022-08-11T05:10:17.917Z,48.18
2022-08-11T05:12:50.080Z,48.33
2022-08-11T05:15:42.961Z,48.38
2022-08-11T05:18:34.934Z,48.19
2022-08-11T05:21:24.621Z,48.20
2022-08-11T05:24:15.461Z,48.16
2022-08-11T05:27:06.119Z,48.27
2022-08-11T05:30:05.127Z,48.30
2022-08-11T05:33:00.974Z,48.35
2022-08-11T05:36:02.143Z,48.36
2022-08-11T05:38:47.713Z,48.41
2022-08-11T05:41:38.385Z,48.13
2022-08-11T05:44:29.243Z,48.17
2022-08-11T05:47:17.439Z,47.99
2022-08-11T05:50:08.860Z,48.03
2022-08-11T05:53:09.147Z,48.02
2022-08-11T05:56:03.253Z,47.84
2022-08-11T05:58:42.331Z,47.72
2022-08-11T06:01:15.221Z,47.33
2022-08-11T06:04:04.060Z,47.34
2022-08-11T06:06:34.871Z,47.07
2022-08-11T06:09:05.804Z,47.13
2022-08-11T06:11:44.930Z,46.81
2022-08-11T06:14:36.458Z,46.80
2022-08-11T06:17:11.993Z,46.60
2022-08-11T06:19:43.674Z,46.54
2022-08-11T06:22:14.485Z,46.17
2022-08-11T06:24:48.036Z,45.77
2022-08-11T06:27:21.593Z,45.69
2022-08-11T06:29:55.874Z,45.32
2022-08-11T06:32:29.779Z,45.15
2022-08-11T06:35:12.286Z,45.20
2022-08-11T06:37:46.859Z,44.92
2022-08-11T06:40:22.616Z,44.93
2022-08-11T06:42:55.181Z,44.60
2022-08-11T06:45:33.419Z,44.25
2022-08-11T06:48:10.471Z,44.42
2022-08-11T06:51:01.633Z,44.39
2022-08-11T06:53:34.700Z,44.11
2022-08-11T06:56:36.017Z,43.47
2022-08-11T06:59:26.497Z,43.40
2022-08-11T07:02:00.202Z,43.32
2022-08-11T07:04:34.440Z,42.93
2022-08-11T07:07:29.662Z,42.82
2022-08-11T07:10:26.174Z,42.33
2022-08-11T07:13:44.575Z,42.41
2022-08-11T07:16:13.910Z,42.02
2022-08-11T07:19:12.528Z,41.64
2022-08-11T07:22:07.458Z,41.68
2022-08-11T07:25:02.583Z,41.78
2022-08-11T07:27:55.495Z,41.26
2022-08-11T07:30:30.351Z,41.12
2022-08-11T07:33:02.252Z,40.95
2022-08-11T07:35:37.677Z,40.62
2022-08-11T07:38:13.500Z,40.42
2022-08-11T07:40:50.163Z,39.75
2022-08-11T07:43:21.028Z,39.96
2022-08-11T07:46:11.916Z,39.80
2022-08-11T07:49:00.493Z,39.39
2022-08-11T07:51:48.752Z,39.31
2022-08-11T07:54:22.056Z,38.95
2022-08-11T07:57:09.381Z,38.31
2022-08-11T08:00:04.207Z,38.33
2022-08-11T08:02:56.310Z,38.15
2022-08-11T08:05:46.371Z,37.84
2022-08-11T08:08:34.964Z,37.43
2022-08-11T08:11:27.500Z,37.03
2022-08-11T08:14:18.447Z,36.97
2022-08-11T08:17:07.755Z,37.01
2022-08-11T08:19:41.313Z,37.01
2022-08-11T08:22:37.905Z,36.61
2022-08-11T08:25:04.815Z,36.45
2022-08-11T08:27:38.832Z,36.72
2022-08-11T08:30:28.205Z,36.32
2022-08-11T08:33:01.187Z,36.27
2022-08-11T08:35:33.678Z,35.99
2022-08-11T08:38:04.657Z,35.90
2022-08-11T08:40:35.539Z,35.60
2022-08-11T08:43:08.666Z,35.49
2022-08-11T08:45:41.601Z,35.50
2022-08-11T08:48:12.775Z,35.31
2022-08-11T08:51:13.587Z,35.10
2022-08-11T08:53:52.531Z,34.79
2022-08-11T08:56:28.415Z,34.68
2022-08-11T08:59:02.494Z,34.64
2022-08-11T09:01:35.330Z,34.10
2022-08-11T09:04:11.376Z,33.75
2022-08-11T09:06:44.454Z,33.58
2022-08-11T09:09:24.919Z,33.37
2022-08-11T09:11:56.880Z,33.18
2022-08-11T09:14:49.121Z,32.72
2022-08-11T09:17:20.846Z,32.87
2022-08-11T09:19:58.909Z,32.90
2022-08-11T09:23:10.293Z,32.49
2022-08-11T09:26:02.208Z,32.32
2022-08-11T09:28:32.999Z,32.20
2022-08-11T09:31:07.053Z,31.98
2022-08-11T09:33:37.957Z,32.05
2022-08-11T09:36:30.624Z,31.92
2022-08-11T09:39:19.581Z,31.73
2022-08-11T09:41:55.667Z,31.09
2022-08-11T09:44:50.946Z,30.94
2022-08-11T09:47:23.272Z,31.27
2022-08-11T09:49:56.340Z,31.05
2022-08-11T09:52:27.070Z,30.93
2022-08-11T09:54:59.253Z,30.92
2022-08-11T09:57:47.681Z,30.66
2022-08-11T10:00:21.056Z,30.82
2022-08-11T10:02:53.275Z,30.62
2022-08-11T10:05:42.132Z,30.44
2022-08-11T10:08:13.576Z,30.21
2022-08-11T10:10:44.459Z,30.09
2022-08-11T10:14:31.392Z,30.28
2022-08-11T10:16:15.235Z,30.10
2022-08-11T10:18:53.414Z,30.02
2022-08-11T10:21:29.532Z,30.02
2022-08-11T10:24:18.918Z,29.86
2022-08-11T10:27:00.309Z,29.94
2022-08-11T10:29:51.265Z,29.77
2022-08-11T10:32:58.670Z,29.60
2022-08-11T10:35:31.480Z,29.63
2022-08-11T10:38:06.316Z,29.30
2022-08-11T10:41:10.963Z,29.10
2022-08-11T10:44:01.192Z,29.34
2022-08-11T10:46:50.872Z,29.42
2022-08-11T10:49:21.640Z,29.29
2022-08-11T10:52:11.735Z,28.96
2022-08-11T10:55:00.001Z,29.00
2022-08-11T10:58:04.590Z,29.00
2022-08-11T11:00:36.879Z,28.62
2022-08-11T11:03:22.635Z,28.38
2022-08-11T11:06:28.561Z,28.39
2022-08-11T11:08:58.753Z,28.44
2022-08-11T11:11:54.224Z,28.63
2022-08-11T11:14:46.794Z,28.74
2022-08-11T11:17:42.044Z,28.34
2022-08-11T11:20:36.381Z,28.39
2022-08-11T11:23:08.104Z,28.00
2022-08-11T11:26:06.065Z,28.11
2022-08-11T11:29:05.678Z,28.18
2022-08-11T11:31:38.072Z,28.15
2022-08-11T11:34:17.090Z,28.15
2022-08-11T11:36:53.764Z,27.91
2022-08-11T11:39:25.595Z,27.99
2022-08-11T11:41:59.665Z,27.92
2022-08-11T11:44:31.707Z,27.69
2022-08-11T11:47:08.127Z,27.77
2022-08-11T11:49:40.004Z,27.46
2022-08-11T11:52:10.867Z,27.57
2022-08-11T11:54:41.808Z,27.33
2022-08-11T11:57:30.284Z,27.47
2022-08-11T12:00:18.867Z,27.52
2022-08-11T12:02:49.940Z,27.61
2022-08-11T12:05:20.661Z,27.72
2022-08-11T12:08:12.736Z,27.69
2022-08-11T12:10:46.790Z,27.34
2022-08-11T12:13:35.781Z,27.22
2022-08-11T12:16:35.015Z,27.06
2022-08-11T12:18:58.637Z,26.97
2022-08-11T12:21:29.713Z,26.83
2022-08-11T12:24:19.315Z,26.62
2022-08-11T12:27:16.597Z,26.62
2022-08-11T12:29:54.438Z,26.37
2022-08-11T12:32:27.394Z,26.48
2022-08-11T12:34:58.299Z,26.58
2022-08-11T12:37:31.481Z,26.29
2022-08-11T12:40:43.183Z,26.20
2022-08-11T12:43:38.178Z,26.29
2022-08-11T12:46:10.308Z,26.04
2022-08-11T12:49:02.939Z,26.14
2022-08-11T12:52:12.522Z,26.01
2022-08-11T12:54:57.992Z,26.21
2022-08-11T12:57:47.652Z,26.16
2022-08-11T13:00:36.445Z,26.14
2022-08-11T13:03:25.742Z,26.20
2022-08-11T13:05:57.246Z,26.03
2022-08-11T13:08:29.736Z,26.31
2022-08-11T13:11:18.620Z,26.41
2022-08-11T13:13:55.648Z,26.43
2022-08-11T13:16:29.925Z,26.31
2022-08-11T13:19:01.835Z,26.18
2022-08-11T13:21:32.706Z,26.25
2022-08-11T13:24:03.821Z,25.89
2022-08-11T13:26:47.036Z,25.86
2022-08-11T13:29:22.474Z,25.89
2022-08-11T13:31:53.555Z,25.59
2022-08-11T13:34:24.763Z,25.40
2022-08-11T13:36:56.215Z,25.25
2022-08-11T13:39:27.640Z,25.19
2022-08-11T13:41:59.699Z,24.87
2022-08-11T13:44:31.559Z,24.87
2022-08-11T13:47:05.955Z,24.83
2022-08-11T13:49:40.316Z,24.60
2022-08-11T13:52:14.298Z,24.46
2022-08-11T13:54:48.193Z,24.32
2022-08-11T13:58:08.506Z,24.40
2022-08-11T14:00:12.951Z,24.48
2022-08-11T14:02:47.039Z,24.40
2022-08-11T14:05:18.566Z,24.28
2022-08-11T14:07:50.656Z,24.27
2022-08-11T14:10:23.510Z,24.00
2022-08-11T14:13:13.466Z,24.12
2022-08-11T14:15:46.312Z,23.69
2022-08-11T14:18:19.688Z,23.40
2022-08-11T14:21:08.427Z,23.32
2022-08-11T14:23:40.540Z,23.34
2022-08-11T14:26:31.910Z,23.18
2022-08-11T14:29:03.690Z,23.41
2022-08-11T14:31:35.296Z,23.28
2022-08-11T14:34:07.422Z,23.26
2022-08-11T14:36:38.735Z,23.64
2022-08-11T14:39:13.324Z,23.58
2022-08-11T14:42:10.830Z,23.51
2022-08-11T14:45:02.385Z,23.49
2022-08-11T14:47:34.126Z,23.32
2022-08-11T14:50:13.510Z,23.26
2022-08-11T14:52:53.104Z,23.13
2022-08-11T14:55:42.773Z,22.98
2022-08-11T14:58:15.957Z,23.06
2022-08-11T15:00:49.097Z,22.93
2022-08-11T15:03:20.058Z,22.87
2022-08-11T15:05:57.753Z,22.90
2022-08-11T15:08:49.229Z,23.09
2022-08-11T15:11:37.144Z,23.19
2022-08-11T15:14:10.093Z,23.15
2022-08-11T15:17:00.276Z,23.06
2022-08-11T15:19:40.655Z,23.10
2022-08-11T15:22:33.504Z,23.03
2022-08-11T15:25:04.266Z,23.14
2022-08-11T15:27:52.412Z,23.08
2022-08-11T15:30:45.320Z,22.96
2022-08-11T15:33:34.088Z,23.03
2022-08-11T15:36:23.123Z,23.03
2022-08-11T15:38:55.774Z,23.12
2022-08-11T15:41:45.645Z,23.04
2022-08-11T15:45:05.329Z,23.06
2022-08-11T15:47:41.317Z,23.32
2022-08-11T15:50:15.446Z,23.24
2022-08-11T15:52:48.288Z,23.21
2022-08-11T15:55:20.433Z,22.85
2022-08-11T15:58:09.228Z,23.01
2022-08-11T16:01:03.719Z,23.11
2022-08-11T16:04:07.677Z,23.34
2022-08-11T16:06:47.803Z,23.36
2022-08-11T16:09:24.058Z,23.39
2022-08-11T16:11:57.020Z,23.33
2022-08-11T16:14:45.410Z,23.60
2022-08-11T16:17:17.740Z,23.60
2022-08-11T16:19:50.217Z,23.65
2022-08-11T16:22:32.795Z,23.82
2022-08-11T16:27:04.809Z,23.86
2022-08-11T16:27:58.804Z,24.03
2022-08-11T16:30:31.944Z,23.86
2022-08-11T16:33:22.708Z,24.12
2022-08-11T16:36:17.616Z,24.00
2022-08-11T16:38:53.991Z,23.97
2022-08-11T16:41:43.387Z,24.00
2022-08-11T16:44:37.602Z,24.12
2022-08-11T16:47:11.924Z,24.31
2022-08-11T16:49:52.519Z,24.17
2022-08-11T16:52:24.418Z,24.22
2022-08-11T16:54:55.416Z,24.37
2022-08-11T16:57:47.527Z,24.37
2022-08-11T17:00:18.774Z,24.47
2022-08-11T17:03:08.852Z,24.52
2022-08-11T17:06:02.156Z,24.75
2022-08-11T17:08:56.901Z,24.86
2022-08-11T17:11:47.922Z,25.02
2022-08-11T17:14:34.979Z,25.01
2022-08-11T17:17:12.905Z,24.89
2022-08-11T17:20:41.239Z,25.09
2022-08-11T17:23:02.104Z,25.24
2022-08-11T17:25:59.921Z,25.16
2022-08-11T17:28:26.214Z,25.39
2022-08-11T17:31:21.881Z,25.44
2022-08-11T17:34:10.838Z,25.55
2022-08-11T17:36:45.496Z,25.76
2022-08-11T17:39:16.879Z,25.90
2022-08-11T17:42:05.985Z,25.84
2022-08-11T17:44:54.289Z,25.98
2022-08-11T17:47:46.779Z,26.14
2022-08-11T17:50:18.287Z,26.17
2022-08-11T17:53:07.213Z,26.24
2022-08-11T17:55:55.438Z,26.33
2022-08-11T17:58:46.233Z,26.49
2022-08-11T18:01:18.367Z,26.72
2022-08-11T18:03:53.263Z,26.77
2022-08-11T18:06:34.561Z,26.84
2022-08-11T18:09:24.091Z,27.10
2022-08-11T18:12:13.169Z,27.43
2022-08-11T18:15:03.353Z,27.53
2022-08-11T18:17:51.727Z,27.63
2022-08-11T18:20:40.212Z,27.47
2022-08-11T18:23:45.841Z,27.79
2022-08-11T18:26:36.798Z,27.84
2022-08-11T18:29:27.938Z,27.90
2022-08-11T18:32:21.095Z,28.14
2022-08-11T18:35:11.949Z,28.40
2022-08-11T18:38:02.911Z,28.28
2022-08-11T18:40:51.448Z,28.54
2022-08-11T18:43:43.849Z,28.70
2022-08-11T18:46:35.066Z,28.62
2022-08-11T18:49:37.364Z,28.88
2022-08-11T18:52:35.817Z,28.82
2022-08-11T18:55:24.983Z,28.72
2022-08-11T18:58:13.393Z,28.70
2022-08-11T19:01:01.849Z,28.62
2022-08-11T19:03:50.329Z,28.62
2022-08-11T19:06:41.369Z,28.74
2022-08-11T19:09:31.484Z,28.61
2022-08-11T19:12:20.679Z,28.64
2022-08-11T19:15:09.373Z,28.60
2022-08-11T19:18:01.184Z,28.64
2022-08-11T19:20:49.987Z,28.73
2022-08-11T19:23:39.872Z,28.78
2022-08-11T19:26:28.196Z,29.07
2022-08-11T19:30:06.982Z,29.16
2022-08-11T19:32:27.245Z,29.12
2022-08-11T19:35:18.012Z,29.16
2022-08-11T19:38:09.879Z,29.28
2022-08-11T19:40:58.617Z,29.40
2022-08-11T19:43:47.133Z,29.33
2022-08-11T19:46:37.611Z,29.47
2022-08-11T19:49:26.042Z,29.72
2022-08-11T19:52:14.731Z,29.61
2022-08-11T19:55:02.998Z,29.72
2022-08-11T19:57:51.486Z,29.75
2022-08-11T20:00:39.980Z,29.85
2022-08-11T20:03:30.321Z,29.81
2022-08-11T20:06:19.947Z,29.94
2022-08-11T20:09:09.903Z,29.92
2022-08-11T20:11:58.757Z,30.04
2022-08-11T20:14:47.297Z,29.96
2022-08-11T20:17:36.740Z,30.06
2022-08-11T20:20:27.814Z,30.12
2022-08-11T20:23:17.479Z,30.31
2022-08-11T20:29:18.136Z,30.40
2022-08-11T20:32:09.659Z,30.41
2022-08-11T20:35:00.753Z,30.40
2022-08-11T20:37:51.237Z,30.58
2022-08-11T20:40:45.251Z,30.57
2022-08-11T20:44:08.136Z,30.64
2022-08-11T20:46:42.408Z,30.55
2022-08-11T20:49:44.359Z,30.72
2022-08-11T20:52:39.730Z,30.80
2022-08-11T20:55:46.163Z,30.95
2022-08-11T21:01:53.476Z,30.90
2022-08-11T21:04:53.926Z,30.98
2022-08-11T21:07:50.302Z,31.03
2022-08-11T21:10:52.681Z,31.08
2022-08-11T21:13:42.047Z,31.10
2022-08-11T21:16:31.689Z,31.11
2022-08-11T21:20:01.556Z,31.27
2022-08-11T21:22:32.900Z,31.26
2022-08-11T21:25:23.088Z,31.42
2022-08-11T21:28:11.186Z,31.41
2022-08-11T21:30:59.539Z,31.60
2022-08-11T21:33:50.850Z,31.53
2022-08-11T21:36:39.193Z,31.68
2022-08-11T21:39:27.893Z,31.75
2022-08-11T21:42:18.641Z,31.68
2022-08-11T21:45:07.047Z,31.83
2022-08-11T21:48:01.003Z,31.84
2022-08-11T21:50:49.462Z,32.00
2022-08-11T21:53:37.855Z,31.98
2022-08-11T21:56:27.653Z,32.04
2022-08-11T21:59:18.056Z,32.08
2022-08-11T22:02:10.559Z,32.04
2022-08-11T22:05:01.102Z,32.15
2022-08-11T22:07:49.664Z,32.15
2022-08-11T22:10:43.163Z,32.23
2022-08-11T22:13:33.526Z,32.29
2022-08-11T22:16:24.863Z,32.43
2022-08-11T22:19:17.907Z,32.34
2022-08-11T22:22:06.200Z,32.36
2022-08-11T22:24:56.582Z,32.31
2022-08-11T22:27:46.153Z,32.52
2022-08-11T22:30:34.676Z,32.62
2022-08-11T22:33:24.364Z,32.61
2022-08-11T22:36:19.305Z,32.62
2022-08-11T22:39:07.453Z,32.57
2022-08-11T22:41:59.158Z,32.83
2022-08-11T22:44:48.761Z,32.86
2022-08-11T22:47:40.743Z,33.07
2022-08-11T22:50:31.207Z,33.05
2022-08-11T22:53:19.367Z,33.09
2022-08-11T22:56:07.804Z,33.29
2022-08-11T22:58:56.127Z,33.35
2022-08-11T23:01:55.521Z,33.14
2022-08-11T23:04:53.309Z,33.40
2022-08-11T23:07:51.354Z,33.29
2022-08-11T23:10:45.425Z,33.62
2022-08-11T23:13:33.834Z,33.51
2022-08-11T23:16:22.714Z,33.65
2022-08-11T23:20:01.568Z,33.89
2022-08-11T23:22:24.553Z,33.96
2022-08-11T23:25:38.109Z,33.83
2022-08-11T23:28:26.645Z,33.97
2022-08-11T23:31:15.596Z,34.09
2022-08-11T23:34:05.391Z,34.07
2022-08-11T23:36:56.057Z,33.94
2022-08-11T23:39:44.688Z,34.21
2022-08-11T23:42:33.037Z,33.95
2022-08-11T23:45:25.249Z,34.00
2022-08-11T23:48:14.668Z,34.09
2022-08-11T23:51:03.045Z,34.31
2022-08-11T23:53:51.491Z,34.25
2022-08-11T23:56:40.016Z,34.21
2022-08-11T23:59:28.342Z,34.36
